Time;durP1;ratioP1;P1;durP2;ratioP2;P2;SDS_P1;SDS_P2;PMS_P1;PMS_P2;Temp;Humidity;BMP_temperature;BMP_pressure;BME280_temperature;BME280_humidity;BME280_pressure;Samples;Min_cycle;Max_cycle;Signal;HPM_P1;HPM_P2
2022/01/26 00:06:43;;;;;;;110.53;65.90;;;;;;;1.81;81.51;103197.59;6433608;23;20017;-73
2022/01/26 00:09:14;;;;;;;115.88;67.20;;;;;;;1.79;81.34;103194.91;6433863;23;20016;-73
2022/01/26 00:11:46;;;;;;;113.33;67.60;;;;;;;1.81;81.85;103198.47;6434139;23;20005;-73
2022/01/26 00:14:17;;;;;;;110.10;66.53;;;;;;;1.85;82.21;103198.66;6434112;23;20048;-73
2022/01/26 00:16:48;;;;;;;109.00;64.63;;;;;;;1.85;81.44;103196.09;6433824;23;20072;-73
2022/01/26 00:19:24;;;;;;;110.97;65.07;;;;;;;1.84;81.94;103194.34;6434036;23;20012;-74
2022/01/26 00:21:56;;;;;;;112.43;67.75;;;;;;;1.85;81.71;103198.66;6434005;23;20186;-73
2022/01/26 00:27:07;;;;;;;115.07;67.93;;;;;;;1.81;82.03;103187.31;6433710;23;20159;-73
2022/01/26 00:29:41;;;;;;;112.57;65.15;;;;;;;1.80;82.29;103189.00;6433933;23;20008;-72
2022/01/26 00:40:43;;;;;;;118.63;67.82;;;;;;;1.76;81.78;103184.44;6433536;23;20024;-73
2022/01/26 00:43:20;;;;;;;115.38;64.78;;;;;;;1.76;82.23;103181.88;6432851;23;20005;-73
2022/01/26 00:45:56;;;;;;;108.18;62.40;;;;;;;1.78;82.34;103187.13;6434176;23;20769;-72
2022/01/26 00:48:31;;;;;;;118.05;68.32;;;;;;;1.78;82.22;103189.69;6432995;23;20091;-74
2022/01/26 00:51:05;;;;;;;117.47;68.35;;;;;;;1.80;82.38;103186.44;6433688;23;20011;-74
2022/01/26 00:53:42;;;;;;;112.10;65.55;;;;;;;1.78;82.24;103192.25;6433594;23;20028;-73
2022/01/26 00:56:14;;;;;;;115.93;66.35;;;;;;;1.73;82.14;103181.69;6433068;23;20005;-75
2022/01/26 00:58:46;;;;;;;114.88;65.85;;;;;;;1.77;83.17;103182.75;6432983;23;20444;-73
2022/01/26 01:01:18;;;;;;;113.97;66.43;;;;;;;1.77;82.94;103181.09;6433526;23;20029;-73
2022/01/26 01:03:49;;;;;;;112.10;64.20;;;;;;;1.79;82.74;103174.34;6433277;23;20012;-73
2022/01/26 01:06:27;;;;;;;116.90;66.97;;;;;;;1.77;82.95;103175.94;6433381;23;20005;-74
2022/01/26 01:08:59;;;;;;;116.13;67.00;;;;;;;1.76;82.15;103179.28;6433110;23;20517;-73
2022/01/26 01:11:30;;;;;;;118.67;65.47;;;;;;;1.78;82.22;103172.56;6433630;23;20005;-74
2022/01/26 01:14:01;;;;;;;113.67;67.33;;;;;;;1.74;81.70;103183.47;6433333;23;20012;-72
2022/01/26 01:16:33;;;;;;;114.60;65.70;;;;;;;1.75;81.40;103180.09;6433383;23;20101;-72
2022/01/26 01:19:26;;;;;;;107.37;62.50;;;;;;;1.73;81.67;103163.69;6433574;23;20004;-73
2022/01/26 01:22:35;;;;;;;115.30;64.85;;;;;;;1.75;81.65;103168.91;6433308;23;20012;-74
2022/01/26 01:28:10;;;;;;;123.47;66.15;;;;;;;1.72;81.94;103164.47;6368378;23;20002;-73
2022/01/26 01:30:45;;;;;;;117.68;66.75;;;;;;;1.69;81.97;103159.16;6368381;23;20424;-74
2022/01/26 01:33:24;;;;;;;118.38;67.28;;;;;;;1.70;82.44;103168.63;6368883;23;20006;-74
2022/01/26 01:35:58;;;;;;;113.43;64.13;;;;;;;1.68;82.28;103152.22;6368435;23;20020;-73
2022/01/26 01:38:29;;;;;;;118.57;64.82;;;;;;;1.68;82.36;103156.50;6368062;23;20145;-74
2022/01/26 01:41:01;;;;;;;123.07;67.93;;;;;;;1.69;82.29;103153.09;6368271;23;20532;-74
2022/01/26 01:43:32;;;;;;;119.53;65.83;;;;;;;1.70;82.19;103149.75;6368144;23;20013;-73
2022/01/26 01:46:05;;;;;;;131.70;66.03;;;;;;;1.72;81.67;103138.75;6368243;23;20010;-73
2022/01/26 01:48:37;;;;;;;117.40;64.50;;;;;;;1.71;81.85;103144.69;6368677;23;20037;-72
2022/01/26 01:51:12;;;;;;;120.20;65.95;;;;;;;1.69;81.59;103151.44;6368102;23;20436;-73
2022/01/26 01:53:44;;;;;;;119.40;65.55;;;;;;;1.72;81.92;103149.03;6368649;23;20036;-73
2022/01/26 01:56:17;;;;;;;117.90;65.85;;;;;;;1.69;82.28;103151.44;6367808;23;20010;-74
2022/01/26 01:58:49;;;;;;;117.32;67.35;;;;;;;1.69;82.16;103154.00;6368344;23;20348;-73
2022/01/26 02:01:20;;;;;;;120.87;67.83;;;;;;;1.69;82.94;103147.97;6368099;23;20021;-73
2022/01/26 02:03:52;;;;;;;119.57;66.37;;;;;;;1.67;82.33;103141.84;6383712;23;20156;-74
2022/01/26 02:06:23;;;;;;;114.83;67.40;;;;;;;1.66;82.15;103140.97;6432871;23;20029;-73
2022/01/26 02:08:54;;;;;;;114.27;62.83;;;;;;;1.68;82.38;103146.22;6432618;23;20087;-72
2022/01/26 02:11:26;;;;;;;120.60;67.10;;;;;;;1.66;82.34;103143.53;6433551;23;20029;-72
2022/01/26 02:14:13;;;;;;;111.60;66.67;;;;;;;1.63;81.81;103133.06;6432707;23;20001;-73
2022/01/26 02:17:05;;;;;;;119.95;64.45;;;;;;;1.63;82.18;103141.66;6432842;23;20024;-73
2022/01/26 02:56:40;;;;;;;110.75;61.70;;;;;;;1.59;83.01;103083.13;6228010;23;20019;-72
2022/01/26 03:04:43;;;;;;;107.95;60.50;;;;;;;1.59;81.64;103071.94;6445023;23;20016;-73
2022/01/26 03:07:22;;;;;;;107.68;61.00;;;;;;;1.64;81.57;103078.25;6435387;23;20016;-72
2022/01/26 03:10:08;;;;;;;111.05;63.97;;;;;;;1.57;81.36;103073.56;6434038;23;20067;-72
2022/01/26 03:15:49;;;;;;;113.70;62.45;;;;;;;1.50;81.54;103068.81;6374621;23;20337;-72
2022/01/26 03:20:57;;;;;;;104.68;59.65;;;;;;;1.52;81.60;103064.69;6379560;23;20020;-72
2022/01/26 03:29:38;;;;;;;111.72;62.47;;;;;;;1.53;81.77;103074.13;6370841;23;20018;-72
2022/01/26 03:34:58;;;;;;;114.80;62.05;;;;;;;1.60;81.67;103081.47;6369063;23;20018;-72
2022/01/26 03:37:37;;;;;;;107.15;59.65;;;;;;;1.63;82.27;103071.34;6369111;23;20036;-73
2022/01/26 03:40:14;;;;;;;110.55;61.15;;;;;;;1.64;81.59;103078.25;6369667;23;20141;-73
2022/01/26 03:42:46;;;;;;;117.15;62.53;;;;;;;1.66;81.31;103073.22;6369057;23;20081;-72
2022/01/26 03:45:17;;;;;;;110.43;62.38;;;;;;;1.66;81.27;103071.53;6369144;23;20089;-73
2022/01/26 03:47:49;;;;;;;112.67;60.20;;;;;;;1.65;81.41;103072.34;6369217;23;20013;-72
2022/01/26 03:50:21;;;;;;;116.20;63.37;;;;;;;1.66;81.87;103076.69;6377938;23;20080;-73
2022/01/26 03:52:53;;;;;;;111.65;61.40;;;;;;;1.65;81.62;103069.75;6434087;23;20009;-73
2022/01/26 03:55:25;;;;;;;117.57;65.37;;;;;;;1.61;81.22;103054.94;6434047;23;20160;-73
2022/01/26 03:57:56;;;;;;;113.27;62.70;;;;;;;1.63;81.77;103054.25;6433590;23;20261;-73
2022/01/26 04:00:27;;;;;;;113.53;61.90;;;;;;;1.62;81.93;103052.44;6434031;23;20088;-72
2022/01/26 04:02:59;;;;;;;112.07;60.93;;;;;;;1.59;81.91;103061.66;6433421;23;20039;-73
2022/01/26 04:05:30;;;;;;;115.70;63.13;;;;;;;1.59;82.14;103059.97;6434348;23;20296;-73
2022/01/26 04:08:09;;;;;;;120.53;63.83;;;;;;;1.60;82.12;103079.75;6433952;23;20072;-73
2022/01/26 04:13:29;;;;;;;113.68;62.83;;;;;;;1.55;82.22;103077.72;6434422;23;20016;-73
2022/01/26 04:16:00;;;;;;;107.70;59.13;;;;;;;1.58;82.38;103080.47;6433989;23;20011;-73
2022/01/26 04:18:37;;;;;;;116.17;63.50;;;;;;;1.53;81.99;103069.91;6433433;23;20009;-73
2022/01/26 04:26:41;;;;;;;113.70;61.00;;;;;;;1.52;82.02;103069.81;6433754;23;20484;-73
2022/01/26 04:29:20;;;;;;;115.85;62.83;;;;;;;1.48;82.18;103057.56;6434087;23;20036;-72
2022/01/26 04:31:51;;;;;;;114.13;63.22;;;;;;;1.43;82.75;103072.69;6433303;23;20032;-74
2022/01/26 04:34:24;;;;;;;118.30;66.47;;;;;;;1.44;82.63;103072.78;6433624;23;20016;-74
2022/01/26 04:37:19;;;;;;;118.72;62.28;;;;;;;1.45;83.07;103071.13;6433596;23;20013;-73
2022/01/26 04:39:58;;;;;;;112.38;60.05;;;;;;;1.43;82.93;103067.56;6433509;23;20033;-72
2022/01/26 04:42:42;;;;;;;114.85;60.17;;;;;;;1.40;82.95;103083.69;6433026;23;20020;-73
2022/01/26 04:45:14;;;;;;;110.15;59.45;;;;;;;1.44;83.04;103090.78;6433559;23;20013;-74
2022/01/26 04:47:45;;;;;;;118.83;62.50;;;;;;;1.44;83.25;103100.19;6433403;23;20484;-73
2022/01/26 04:50:17;;;;;;;112.60;58.83;;;;;;;1.43;83.01;103108.69;6433011;23;20012;-73
2022/01/26 04:52:48;;;;;;;118.37;62.63;;;;;;;1.40;83.02;103109.41;6433120;23;20330;-73
2022/01/26 04:55:19;;;;;;;111.47;60.23;;;;;;;1.41;83.54;103108.56;6433351;23;20261;-72
2022/01/26 04:57:51;;;;;;;120.07;63.20;;;;;;;1.36;83.67;103097.13;6433926;23;20005;-72
2022/01/26 05:00:22;;;;;;;117.67;63.63;;;;;;;1.38;83.67;103092.09;6432920;23;20079;-73
2022/01/26 05:02:53;;;;;;;121.37;63.20;;;;;;;1.36;83.88;103109.09;6432756;23;20387;-73
2022/01/26 05:05:25;;;;;;;111.43;59.57;;;;;;;1.36;83.57;103103.97;6433434;23;20558;-73
2022/01/26 05:07:56;;;;;;;118.97;61.97;;;;;;;1.39;83.72;103104.16;6434017;23;20013;-72
2022/01/26 05:10:28;;;;;;;109.93;59.07;;;;;;;1.37;83.52;103093.78;6433158;23;20015;-72
2022/01/26 05:13:00;;;;;;;109.63;61.93;;;;;;;1.38;83.65;103092.09;6433046;23;20658;-73
2022/01/26 05:15:31;;;;;;;111.30;60.53;;;;;;;1.40;83.93;103099.13;6432961;23;20009;-72
2022/01/26 05:18:05;;;;;;;114.50;61.73;;;;;;;1.38;83.81;103100.69;6432590;23;20013;-73
2022/01/26 05:20:36;;;;;;;114.10;62.65;;;;;;;1.40;83.51;103086.25;6432730;23;20005;-73
2022/01/26 05:23:09;;;;;;;116.80;62.40;;;;;;;1.40;83.97;103078.56;6433320;23;20660;-73
2022/01/26 05:25:41;;;;;;;120.57;64.05;;;;;;;1.37;83.58;103065.50;6432978;23;20446;-71
2022/01/26 05:28:12;;;;;;;112.47;60.93;;;;;;;1.42;83.72;103065.81;6432895;23;20040;-72
2022/01/26 05:30:43;;;;;;;116.33;64.93;;;;;;;1.40;84.14;103047.72;6432803;23;20015;-72
2022/01/26 05:33:14;;;;;;;113.70;63.87;;;;;;;1.38;83.90;103043.25;6432742;23;20008;-72
2022/01/26 05:35:46;;;;;;;115.60;61.33;;;;;;;1.36;84.26;103057.72;6432969;23;20427;-73
2022/01/26 05:38:17;;;;;;;112.43;61.67;;;;;;;1.37;84.20;103051.75;6433235;23;20012;-73
2022/01/26 05:40:50;;;;;;;117.23;60.90;;;;;;;1.36;84.07;103055.13;6421632;23;20121;-73
2022/01/26 05:43:22;;;;;;;119.65;64.03;;;;;;;1.35;84.29;103066.19;6402275;23;20061;-72
2022/01/26 05:45:56;;;;;;;116.33;61.03;;;;;;;1.34;84.46;103057.59;6402163;23;20108;-71
2022/01/26 05:48:28;;;;;;;120.43;63.65;;;;;;;1.35;84.14;103054.22;6401495;23;20013;-72
2022/01/26 05:51:07;;;;;;;116.17;62.67;;;;;;;1.36;84.74;103044.84;6402655;23;20010;-72
2022/01/26 05:53:40;;;;;;;115.47;61.75;;;;;;;1.34;84.65;103061.88;6401295;23;20005;-71
2022/01/26 05:56:11;;;;;;;117.47;62.47;;;;;;;1.34;85.08;103056.72;6402420;23;20013;-72
2022/01/26 05:58:42;;;;;;;118.77;66.73;;;;;;;1.35;84.77;103049.09;6401889;23;20016;-72
2022/01/26 06:01:15;;;;;;;118.37;63.10;;;;;;;1.39;84.55;103051.06;6402014;23;20006;-72
2022/01/26 06:03:46;;;;;;;134.57;70.10;;;;;;;1.36;85.08;103042.28;6401905;23;20005;-72
2022/01/26 06:06:21;;;;;;;126.90;63.47;;;;;;;1.38;85.17;103038.13;6402153;23;20005;-71
2022/01/26 06:08:52;;;;;;;120.97;65.55;;;;;;;1.40;84.97;103037.44;6376053;23;20014;-72
2022/01/26 06:11:24;;;;;;;116.87;63.43;;;;;;;1.42;85.04;103040.97;6401993;23;20013;-72
2022/01/26 06:13:55;;;;;;;111.60;60.53;;;;;;;1.42;85.54;103043.53;6401618;23;20091;-73
2022/01/26 06:16:26;;;;;;;122.07;64.37;;;;;;;1.41;85.25;103051.16;6401688;23;20009;-73
2022/01/26 06:18:58;;;;;;;120.30;65.67;;;;;;;1.40;85.68;103050.28;6401162;23;20064;-73
2022/01/26 06:21:29;;;;;;;122.87;66.37;;;;;;;1.40;85.72;103060.56;6401812;23;20450;-73
2022/01/26 06:24:00;;;;;;;119.30;62.23;;;;;;;1.42;85.72;103053.81;6401434;23;20001;-73
2022/01/26 06:26:32;;;;;;;120.87;65.87;;;;;;;1.35;86.01;103056.78;6401119;23;20036;-72
2022/01/26 06:29:03;;;;;;;123.83;62.27;;;;;;;1.38;86.44;103056.09;6401831;23;20012;-73
2022/01/26 06:31:39;;;;;;;114.13;61.97;;;;;;;1.39;86.60;103045.03;6402067;23;20061;-72
2022/01/26 06:34:11;;;;;;;122.28;63.55;;;;;;;1.41;86.57;103048.59;6401766;23;20420;-72
2022/01/26 06:36:43;;;;;;;114.72;62.22;;;;;;;1.39;86.44;103045.94;6401599;23;20371;-72
2022/01/26 06:39:14;;;;;;;119.37;62.27;;;;;;;1.38;86.80;103036.44;6401625;23;20010;-73
2022/01/26 06:41:52;;;;;;;118.23;63.27;;;;;;;1.40;86.89;103042.56;6418374;23;20024;-69
2022/01/26 06:44:34;;;;;;;119.97;63.15;;;;;;;1.41;87.15;103052.03;6426689;23;20085;-71
2022/01/26 06:49:43;;;;;;;125.85;65.55;;;;;;;1.41;87.28;103053.72;6438283;23;20021;-76
2022/01/26 06:52:15;;;;;;;119.90;61.57;;;;;;;1.41;87.57;103054.59;6429065;23;20005;-73
2022/01/26 06:54:49;;;;;;;114.47;62.90;;;;;;;1.43;87.63;103063.31;6428906;23;20251;-73
2022/01/26 06:57:21;;;;;;;124.13;65.45;;;;;;;1.44;87.85;103064.19;6428534;23;20032;-71
2022/01/26 06:59:52;;;;;;;126.97;66.43;;;;;;;1.42;87.44;103055.53;6429000;23;20450;-71
2022/01/26 07:02:23;;;;;;;116.57;62.33;;;;;;;1.45;87.75;103038.59;6428659;23;20032;-71
2022/01/26 07:04:55;;;;;;;122.07;67.13;;;;;;;1.42;87.90;103046.13;6428972;23;20760;-72
2022/01/26 07:07:26;;;;;;;127.70;66.93;;;;;;;1.43;87.96;103049.56;6430509;23;20441;-70
2022/01/26 07:09:57;;;;;;;120.07;66.13;;;;;;;1.44;88.30;103049.66;6431401;23;20446;-72
2022/01/26 07:12:29;;;;;;;123.70;64.07;;;;;;;1.44;88.10;103041.94;6430956;23;20005;-71
2022/01/26 07:23:18;;;;;;;125.47;67.78;;;;;;;1.41;88.95;103054.59;6431504;23;20009;-71
2022/01/26 07:25:50;;;;;;;131.87;69.60;;;;;;;1.47;89.11;103073.78;6431494;23;20012;-71
2022/01/26 07:28:21;;;;;;;140.73;73.70;;;;;;;1.40;89.55;103096.53;6431029;23;20008;-70
2022/01/26 07:30:52;;;;;;;133.57;70.47;;;;;;;1.38;90.20;103092.97;6431547;23;20052;-71
2022/01/26 07:33:24;;;;;;;137.13;70.43;;;;;;;1.41;89.85;103072.59;6431457;23;20013;-72
2022/01/26 07:35:55;;;;;;;136.83;69.23;;;;;;;1.43;89.92;103072.69;6430401;23;20761;-73
2022/01/26 07:38:26;;;;;;;140.27;69.67;;;;;;;1.45;90.20;103076.28;6431023;23;20005;-71
2022/01/26 07:40:58;;;;;;;139.07;68.93;;;;;;;1.44;90.66;103077.94;6430417;23;20017;-72
2022/01/26 07:43:30;;;;;;;145.52;70.10;;;;;;;1.45;90.56;103077.16;6431505;23;20031;-74
2022/01/26 07:46:01;;;;;;;139.07;72.70;;;;;;;1.40;90.99;103068.28;6431583;23;20009;-73
2022/01/26 07:48:33;;;;;;;139.63;69.30;;;;;;;1.43;90.98;103073.59;6430782;23;20012;-73
2022/01/26 07:51:04;;;;;;;138.90;70.13;;;;;;;1.47;91.08;103074.69;6430159;23;20080;-72
2022/01/26 07:53:36;;;;;;;140.50;71.53;;;;;;;1.42;91.95;103070.94;6430503;23;20005;-72
2022/01/26 07:56:07;;;;;;;139.67;68.57;;;;;;;1.39;92.22;103069.06;6430055;23;20005;-72
2022/01/26 07:58:40;;;;;;;134.90;71.43;;;;;;;1.40;92.50;103068.28;6430372;23;20009;-71
2022/01/26 08:01:11;;;;;;;139.52;68.72;;;;;;;1.37;92.43;103083.50;6430541;23;20271;-72
2022/01/26 08:03:43;;;;;;;141.43;68.50;;;;;;;1.40;92.93;103099.13;6430149;23;20001;-70
2022/01/26 08:06:17;;;;;;;155.53;69.70;;;;;;;1.39;92.83;103109.28;6430144;23;20028;-72
2022/01/26 08:08:48;;;;;;;147.48;68.30;;;;;;;1.41;93.33;103107.69;6429964;23;20015;-74
2022/01/26 08:11:20;;;;;;;143.87;69.57;;;;;;;1.42;93.45;103107.78;6429641;23;20088;-72
2022/01/26 08:13:52;;;;;;;145.47;68.50;;;;;;;1.41;93.67;103103.44;6429843;23;20510;-72
2022/01/26 08:16:24;;;;;;;148.27;69.57;;;;;;;1.41;94.15;103102.56;6429606;23;20141;-75
2022/01/26 08:18:56;;;;;;;140.77;70.93;;;;;;;1.44;94.06;103106.19;6429783;23;20015;-74
2022/01/26 08:21:27;;;;;;;148.63;68.60;;;;;;;1.52;93.88;103113.50;6429645;23;20009;-71
2022/01/26 08:24:03;;;;;;;145.57;67.37;;;;;;;1.48;94.29;103116.69;6429461;23;20008;-75
2022/01/26 08:26:40;;;;;;;135.10;67.85;;;;;;;1.49;94.37;103108.19;6429739;23;20032;-71
2022/01/26 08:29:18;;;;;;;150.27;70.78;;;;;;;1.47;94.28;103107.22;6429086;23;20028;-71
2022/01/26 08:31:49;;;;;;;144.40;72.00;;;;;;;1.48;94.30;103090.97;6429753;23;20494;-72
2022/01/26 08:34:21;;;;;;;141.00;69.33;;;;;;;1.51;94.70;103094.63;6429525;23;20108;-72
2022/01/26 08:36:52;;;;;;;137.00;65.40;;;;;;;1.50;94.94;103090.28;6429723;23;20009;-73
2022/01/26 08:39:24;;;;;;;138.43;64.90;;;;;;;1.51;94.95;103091.16;6425894;23;20009;-72
2022/01/26 08:41:55;;;;;;;149.40;68.20;;;;;;;1.48;95.37;103106.41;6428680;23;20047;-74
2022/01/26 08:44:27;;;;;;;142.70;68.33;;;;;;;1.47;95.57;103096.94;6427565;23;20013;-74
2022/01/26 08:46:59;;;;;;;144.27;67.90;;;;;;;1.47;95.92;103091.78;6428399;23;20060;-73
2022/01/26 08:49:31;;;;;;;138.60;67.57;;;;;;;1.44;96.53;103103.63;6429770;23;20914;-72
2022/01/26 08:52:02;;;;;;;141.48;67.45;;;;;;;1.44;96.20;103119.06;6430623;23;20423;-73
2022/01/26 08:54:34;;;;;;;136.47;64.23;;;;;;;1.49;96.12;103108.19;6429799;23;20016;-72
2022/01/26 08:57:07;;;;;;;141.83;65.73;;;;;;;1.46;96.48;103111.44;6428788;23;20016;-73
2022/01/26 08:59:40;;;;;;;138.85;65.35;;;;;;;1.51;96.42;103109.16;6428946;23;20343;-71
2022/01/26 09:02:12;;;;;;;144.23;65.65;;;;;;;1.51;96.82;103112.59;6429457;23;20001;-72
2022/01/26 09:04:43;;;;;;;133.27;63.67;;;;;;;1.57;96.19;103110.41;6428892;23;20016;-72
2022/01/26 09:07:16;;;;;;;132.27;62.67;;;;;;;1.62;96.05;103113.28;6429456;23;20005;-71
2022/01/26 09:09:47;;;;;;;;;;;;;;;1.68;95.56;103102.50;6429004;23;20035;-71
2022/01/26 09:12:19;;;;;;;124.25;60.55;;;;;;;1.67;95.63;103096.44;6429233;23;19912;-72
2022/01/26 09:14:52;;;;;;;130.50;62.72;;;;;;;1.68;95.66;103097.34;6429112;23;20032;-72
2022/01/26 09:17:27;;;;;;;118.63;56.97;;;;;;;1.69;95.45;103112.88;6429735;23;20088;-72
2022/01/26 09:20:00;;;;;;;126.38;62.92;;;;;;;1.73;95.43;103104.53;6429168;23;20040;-75
2022/01/26 09:22:31;;;;;;;123.47;61.33;;;;;;;1.74;95.26;103110.56;6429649;23;20108;-71
2022/01/26 09:25:03;;;;;;;126.93;62.53;;;;;;;1.76;95.22;103111.56;6429304;23;20076;-71
2022/01/26 09:27:36;;;;;;;118.20;58.00;;;;;;;1.80;95.09;103116.06;6428741;23;20008;-71
2022/01/26 09:30:08;;;;;;;120.13;62.28;;;;;;;1.75;95.16;103120.06;6402103;23;20005;-72
2022/01/26 09:32:39;;;;;;;122.68;59.92;;;;;;;1.76;95.45;103127.88;6429484;23;20009;-70
2022/01/26 09:35:13;;;;;;;118.37;60.10;;;;;;;1.80;95.07;103122.13;6429493;23;20012;-70
2022/01/26 09:37:44;;;;;;;115.70;57.35;;;;;;;1.85;95.24;103121.50;6429067;23;20001;-72
2022/01/26 09:40:15;;;;;;;118.77;59.90;;;;;;;1.92;95.12;103127.13;6401715;23;20083;-72
2022/01/26 09:42:49;;;;;;;111.20;58.90;;;;;;;1.94;94.80;103111.78;6428373;23;20016;-73
2022/01/26 09:45:21;;;;;;;119.50;58.47;;;;;;;1.98;95.01;103100.84;6429876;23;20075;-72
2022/01/26 09:47:52;;;;;;;123.30;59.87;;;;;;;1.98;94.39;103104.34;6429229;23;20031;-70
2022/01/26 09:50:24;;;;;;;107.27;57.00;;;;;;;2.00;94.18;103094.16;6402150;23;20001;-74
2022/01/26 09:52:57;;;;;;;113.72;58.40;;;;;;;2.04;94.13;103085.78;6428917;23;20370;-71
2022/01/26 09:55:30;;;;;;;109.07;56.20;;;;;;;2.09;93.59;103084.38;6428436;23;20033;-74
2022/01/26 09:58:02;;;;;;;101.85;56.55;;;;;;;2.07;93.80;103073.13;6428750;23;20020;-72
2022/01/26 10:00:34;;;;;;;113.40;56.53;;;;;;;2.13;93.44;103080.31;6428496;23;20020;-74
2022/01/26 10:03:06;;;;;;;105.03;54.73;;;;;;;2.14;93.32;103082.06;6429264;23;20009;-72
2022/01/26 10:05:43;;;;;;;100.30;54.57;;;;;;;2.14;93.28;103095.84;6429199;23;20009;-73
2022/01/26 10:08:49;;;;;;;95.80;52.70;;;;;;;2.19;92.75;103091.84;6429392;23;20008;-71
2022/01/26 10:19:33;;;;;;;91.55;50.88;;;;;;;2.25;92.14;103085.28;6439235;23;20354;-72
2022/01/26 10:22:04;;;;;;;89.93;48.72;;;;;;;2.29;91.69;103082.09;6429196;23;20006;-70
2022/01/26 10:24:36;;;;;;;87.77;50.30;;;;;;;2.27;91.72;103088.81;6429513;23;20036;-72
2022/01/26 10:27:08;;;;;;;88.73;49.73;;;;;;;2.24;91.84;103079.25;6428587;23;20036;-74
2022/01/26 10:29:45;;;;;;;89.00;49.08;;;;;;;2.30;91.85;103073.56;6429380;23;20031;-73
2022/01/26 10:32:17;;;;;;;89.45;50.60;;;;;;;2.33;92.16;103072.06;6431580;23;20020;-72
2022/01/26 10:34:57;;;;;;;100.03;53.27;;;;;;;2.31;91.77;103076.22;6431877;23;20009;-72
2022/01/26 10:37:29;;;;;;;89.03;50.35;;;;;;;2.30;91.71;103079.63;6432204;23;20009;-72
2022/01/26 10:40:13;;;;;;;87.50;50.50;;;;;;;2.38;92.05;103087.75;6433127;23;20075;-71
2022/01/26 10:43:06;;;;;;;88.97;50.95;;;;;;;2.33;92.18;103108.09;6434369;23;20016;-74
2022/01/26 10:45:46;;;;;;;92.15;52.75;;;;;;;2.24;92.04;103125.59;6434745;23;20032;-72
2022/01/26 10:54:09;;;;;;;91.38;51.35;;;;;;;2.27;92.82;103127.44;6434347;23;20013;-72
2022/01/26 10:56:40;;;;;;;84.38;46.85;;;;;;;2.32;92.94;103124.34;6433826;23;20072;-74
2022/01/26 10:59:13;;;;;;;93.00;51.70;;;;;;;2.36;92.64;103121.13;6433267;23;20051;-73
2022/01/26 11:01:45;;;;;;;84.97;50.85;;;;;;;2.31;92.63;103120.00;6433910;23;20450;-72
2022/01/26 11:04:16;;;;;;;89.97;50.80;;;;;;;2.40;93.06;103113.59;6434502;23;20009;-71
2022/01/26 11:06:53;;;;;;;89.30;52.47;;;;;;;2.35;92.94;103114.22;6434522;23;20005;-73
2022/01/26 11:09:27;;;;;;;90.60;50.28;;;;;;;2.38;92.88;103110.94;6433810;23;20017;-73
2022/01/26 11:12:04;;;;;;;88.88;50.97;;;;;;;2.40;93.03;103114.50;6433906;23;20491;-73
2022/01/26 11:14:43;;;;;;;94.80;51.33;;;;;;;2.40;93.00;103117.09;6434380;23;20148;-72
2022/01/26 11:17:27;;;;;;;97.00;50.33;;;;;;;2.48;92.85;103102.06;6434048;23;20005;-71
2022/01/26 11:20:01;;;;;;;94.00;51.47;;;;;;;2.48;92.66;103099.47;6433347;23;20434;-72
2022/01/26 11:22:33;;;;;;;91.57;51.17;;;;;;;2.48;92.66;103095.25;6434151;23;20770;-74
2022/01/26 11:25:10;;;;;;;93.83;50.10;;;;;;;2.46;92.87;103096.81;6434004;23;20009;-74
2022/01/26 11:27:41;;;;;;;89.30;50.20;;;;;;;2.47;92.77;103088.31;6433635;23;20009;-75
2022/01/26 11:30:19;;;;;;;92.37;49.10;;;;;;;2.52;92.94;103091.16;6434075;23;20088;-74
2022/01/26 11:33:02;;;;;;;93.93;49.67;;;;;;;2.53;92.36;103091.25;6434237;23;20279;-74
2022/01/26 11:35:35;;;;;;;91.97;51.50;;;;;;;2.55;92.13;103088.75;6434058;23;20009;-74
2022/01/26 11:38:29;;;;;;;93.18;50.97;;;;;;;2.53;92.75;103088.66;6433428;23;20005;-72
2022/01/26 11:47:15;;;;;;;95.35;51.03;;;;;;;2.70;91.69;103070.69;6433748;23;20009;-75
2022/01/26 11:49:50;;;;;;;95.30;50.20;;;;;;;2.65;91.44;103062.72;6432850;23;20344;-73
2022/01/26 11:52:27;;;;;;;92.13;51.67;;;;;;;2.71;92.28;103059.59;6433000;23;20007;-73
2022/01/26 11:55:00;;;;;;;87.70;48.60;;;;;;;2.71;91.30;103060.50;6432930;23;20036;-73
2022/01/26 11:57:39;;;;;;;;;;;;;;;2.78;91.38;103061.72;6434058;23;20005;-73
2022/01/26 12:00:16;;;;;;;85.30;48.28;;;;;;;2.64;91.38;103062.63;6433662;23;19927;-72
2022/01/26 12:02:53;;;;;;;93.85;50.30;;;;;;;2.71;91.68;103064.75;6433839;23;20001;-72
2022/01/26 12:05:26;;;;;;;88.95;47.83;;;;;;;2.74;91.26;103057.22;6433898;23;20437;-72
2022/01/26 12:07:59;;;;;;;82.55;50.70;;;;;;;2.77;91.28;103054.81;6433271;23;20096;-71
2022/01/26 12:10:32;;;;;;;91.70;52.10;;;;;;;2.84;91.31;103064.63;6433443;23;20016;-72
2022/01/26 12:13:15;;;;;;;86.10;48.60;;;;;;;2.81;91.02;103049.00;6433607;23;20692;-72
2022/01/26 12:16:02;;;;;;;;;;;;;;;2.89;90.56;103052.88;6433904;23;20144;-72
2022/01/26 12:18:51;;;;;;;93.38;50.45;;;;;;;2.72;91.01;103048.47;6433412;23;19908;-74
2022/01/26 12:36:02;;;;;;;84.05;45.95;;;;;;;2.80;90.45;103057.56;6432918;23;20016;-72
2022/01/26 12:41:30;;;;;;;81.63;46.33;;;;;;;2.80;90.15;103059.22;6433173;23;20025;-71
2022/01/26 12:44:12;;;;;;;89.00;49.55;;;;;;;2.83;90.38;103056.81;6433047;23;20088;-72
2022/01/26 12:46:43;;;;;;;85.85;50.95;;;;;;;2.80;90.16;103061.78;6433068;23;20001;-71
2022/01/26 12:49:19;;;;;;;80.90;48.53;;;;;;;2.87;90.25;103053.63;6433394;23;20320;-72
2022/01/26 12:51:52;;;;;;;84.32;48.80;;;;;;;2.85;89.80;103057.78;6432794;23;20020;-72
2022/01/26 12:54:25;;;;;;;79.45;46.33;;;;;;;2.99;89.85;103050.81;6433023;23;20032;-72
2022/01/26 12:57:06;;;;;;;75.00;45.22;;;;;;;3.00;89.61;103055.19;6433378;23;20144;-71
2022/01/26 12:59:38;;;;;;;75.70;44.97;;;;;;;2.98;89.09;103051.63;6432850;23;20009;-73
2022/01/26 13:02:10;;;;;;;75.57;44.50;;;;;;;3.03;89.63;103056.25;6433132;23;20032;-74
2022/01/26 13:04:41;;;;;;;76.40;44.07;;;;;;;3.07;88.90;103046.97;6434278;23;20009;-76
2022/01/26 13:07:17;;;;;;;77.00;48.00;;;;;;;3.01;89.12;103044.97;6433738;23;20251;-73
2022/01/26 13:09:49;;;;;;;76.57;44.85;;;;;;;3.02;89.01;103045.84;6433102;23;20060;-73
2022/01/26 13:12:31;;;;;;;84.07;45.87;;;;;;;3.05;89.22;103038.28;6433358;23;20338;-72
2022/01/26 13:15:17;;;;;;;78.65;47.13;;;;;;;3.02;88.71;103023.53;6432335;23;20008;-72
2022/01/26 13:17:58;;;;;;;81.28;44.95;;;;;;;3.06;89.24;103019.47;6433491;23;20438;-71
2022/01/26 13:27:08;;;;;;;79.72;44.47;;;;;;;3.17;88.52;103022.59;6433094;23;20017;-72
2022/01/26 13:40:48;;;;;;;133.43;84.07;;;;;;;3.35;87.88;103010.69;6398056;23;20036;-73
2022/01/26 13:51:47;;;;;;;115.53;77.33;;;;;;;3.33;88.22;103008.81;6409092;23;20439;-72
2022/01/26 13:57:12;;;;;;;95.22;62.25;;;;;;;3.34;87.42;102995.16;6397892;23;20025;-72
2022/01/26 13:59:51;;;;;;;100.63;58.17;;;;;;;3.29;87.68;102993.19;6397659;23;20045;-72
2022/01/26 14:02:25;;;;;;;91.75;55.67;;;;;;;3.26;87.70;102989.56;6407156;23;20091;-72
2022/01/26 14:04:57;;;;;;;89.70;55.92;;;;;;;3.32;87.67;102989.00;6432272;23;20005;-71
2022/01/26 14:07:28;;;;;;;90.73;53.83;;;;;;;3.31;87.56;102993.28;6432149;23;20035;-76
2022/01/26 14:09:59;;;;;;;81.63;49.50;;;;;;;3.34;87.53;102992.56;6432740;23;20761;-72
2022/01/26 14:12:36;;;;;;;82.10;53.37;;;;;;;3.23;87.38;102977.41;6432654;23;20084;-71
2022/01/26 14:15:09;;;;;;;79.75;46.95;;;;;;;3.23;87.29;102977.41;6433576;23;20639;-72
2022/01/26 14:17:57;;;;;;;73.07;46.63;;;;;;;3.13;87.79;102976.84;6434373;23;20084;-70
2022/01/26 14:25:49;;;;;;;66.80;44.10;;;;;;;3.10;88.04;102980.16;6434607;23;20017;-73
2022/01/26 14:28:24;;;;;;;73.25;42.78;;;;;;;3.15;88.08;102985.53;6432524;23;20036;-73
2022/01/26 14:33:58;;;;;;;76.15;45.03;;;;;;;3.13;88.00;102980.31;6445129;23;20084;-73